createdAt,value
2018-06-05T00:01:37.521Z,28.07
2018-06-05T00:04:06.045Z,25.70
2018-06-05T00:06:34.731Z,30.00
2018-06-05T00:09:04.508Z,29.40
2018-06-05T00:11:33.568Z,28.70
2018-06-05T00:14:01.792Z,24.90
2018-06-05T00:16:30.567Z,27.17
2018-06-05T00:18:59.243Z,24.10
2018-06-05T00:21:27.612Z,29.00
2018-06-05T00:23:55.713Z,24.93
2018-06-05T00:26:24.105Z,22.20
2018-06-05T00:28:52.861Z,22.40
2018-06-05T00:34:07.757Z,21.40
2018-06-05T00:36:36.043Z,19.47
2018-06-05T00:39:06.372Z,19.97
2018-06-05T00:41:34.777Z,20.03
2018-06-05T00:44:03.841Z,20.03
2018-06-05T00:46:33.057Z,20.93
2018-06-05T00:49:01.955Z,24.60
2018-06-05T00:51:35.764Z,20.37
2018-06-05T00:54:03.956Z,20.73
2018-06-05T00:56:33.129Z,23.27
2018-06-05T00:59:01.527Z,22.03
2018-06-05T01:01:29.681Z,19.17
2018-06-05T01:03:58.021Z,20.73
2018-06-05T01:06:26.725Z,21.57
2018-06-05T01:08:55.058Z,20.20
2018-06-05T01:11:24.175Z,17.67
2018-06-05T01:13:52.991Z,17.13
2018-06-05T01:16:22.673Z,21.43
2018-06-05T01:18:51.969Z,21.77
2018-06-05T01:21:20.643Z,23.93
2018-06-05T01:23:48.935Z,21.17
2018-06-05T01:26:18.942Z,18.77
2018-06-05T01:28:47.334Z,18.40
2018-06-05T01:31:15.451Z,19.70
2018-06-05T01:33:44.055Z,17.43
2018-06-05T01:36:12.504Z,21.23
2018-06-05T01:38:41.029Z,16.77
2018-06-05T01:41:10.007Z,19.27
2018-06-05T01:43:38.961Z,22.10
2018-06-05T01:46:07.761Z,19.17
2018-06-05T01:48:36.375Z,21.40
2018-06-05T01:51:05.434Z,21.77
2018-06-05T01:53:34.042Z,20.57
2018-06-05T01:56:02.628Z,18.83
2018-06-05T01:58:32.300Z,26.53
2018-06-05T02:01:00.802Z,20.10
2018-06-05T02:03:29.259Z,19.50
2018-06-05T02:05:57.604Z,20.40
2018-06-05T02:08:25.917Z,27.10
2018-06-05T02:10:55.196Z,22.03
2018-06-05T02:13:23.555Z,23.33
2018-06-05T02:15:52.038Z,20.40
2018-06-05T02:18:20.456Z,21.37
2018-06-05T02:20:48.981Z,19.30
2018-06-05T02:23:17.656Z,21.67
2018-06-05T02:25:46.563Z,21.50
2018-06-05T02:28:15.340Z,20.30
2018-06-05T02:30:44.877Z,21.00
2018-06-05T02:33:13.339Z,19.87
2018-06-05T02:35:41.719Z,19.67
2018-06-05T02:38:10.578Z,26.70
2018-06-05T02:40:39.017Z,20.17
2018-06-05T02:43:07.270Z,19.63
2018-06-05T02:45:37.010Z,20.57
2018-06-05T02:48:05.717Z,25.73
2018-06-05T02:50:34.874Z,17.90
2018-06-05T02:53:03.317Z,20.00
2018-06-05T02:55:31.966Z,20.97
2018-06-05T02:58:00.976Z,19.57
2018-06-05T03:00:29.639Z,20.50
2018-06-05T03:02:58.418Z,22.47
2018-06-05T03:05:27.471Z,21.00
2018-06-05T03:07:56.161Z,25.83
2018-06-05T03:10:25.275Z,27.40
2018-06-05T03:12:54.580Z,19.20
2018-06-05T03:15:23.959Z,17.33
2018-06-05T03:17:53.015Z,19.13
2018-06-05T03:20:21.238Z,19.97
2018-06-05T03:22:50.273Z,18.80
2018-06-05T03:25:18.611Z,18.27
2018-06-05T03:27:47.647Z,18.10
2018-06-05T03:30:16.239Z,18.70
2018-06-05T03:32:44.778Z,23.87
2018-06-05T03:35:13.211Z,24.20
2018-06-05T03:37:42.299Z,17.60
2018-06-05T03:40:10.964Z,20.27
2018-06-05T03:42:39.340Z,24.20
2018-06-05T03:45:07.572Z,19.27
2018-06-05T03:47:35.901Z,16.17
2018-06-05T03:50:05.206Z,20.20
2018-06-05T03:52:34.103Z,19.43
2018-06-05T03:55:02.934Z,18.63
2018-06-05T03:57:31.813Z,27.30
2018-06-05T04:00:00.575Z,20.00
2018-06-05T04:02:29.370Z,25.53
2018-06-05T04:04:58.834Z,17.60
2018-06-05T04:07:28.160Z,18.53
2018-06-05T04:09:58.043Z,19.03
2018-06-05T04:12:26.801Z,21.87
2018-06-05T04:14:55.523Z,18.73
2018-06-05T04:17:24.084Z,18.63
2018-06-05T04:19:53.136Z,20.90
2018-06-05T04:22:21.389Z,17.77
2018-06-05T04:24:49.718Z,18.30
2018-06-05T04:27:18.074Z,17.90
2018-06-05T04:29:46.858Z,19.33
2018-06-05T04:32:15.075Z,17.27
2018-06-05T04:34:44.310Z,17.40
2018-06-05T04:37:12.748Z,17.77
2018-06-05T04:39:42.125Z,19.23
2018-06-05T04:50:26.576Z,21.93
2018-06-05T04:52:55.342Z,23.60
2018-06-05T04:55:23.854Z,25.80
2018-06-05T04:57:52.681Z,23.10
2018-06-05T05:00:21.763Z,20.00
2018-06-05T05:02:50.893Z,22.90
2018-06-05T05:05:20.047Z,24.27
2018-06-05T05:07:48.475Z,23.73
2018-06-05T05:10:17.744Z,20.67
2018-06-05T05:12:46.887Z,25.67
2018-06-05T05:15:16.135Z,24.40
2018-06-05T05:17:44.881Z,22.53
2018-06-05T05:20:13.802Z,21.40
2018-06-05T05:22:42.597Z,22.57
2018-06-05T05:25:11.311Z,22.33
2018-06-05T05:27:40.571Z,19.73
2018-06-05T05:30:09.395Z,17.90
2018-06-05T05:32:38.099Z,28.57
2018-06-05T05:35:06.576Z,17.93
2018-06-05T05:37:35.204Z,20.50
2018-06-05T05:40:04.974Z,24.13
2018-06-05T05:42:33.741Z,25.10
2018-06-05T05:45:02.627Z,21.73
2018-06-05T05:47:31.039Z,36.73
2018-06-05T05:49:59.808Z,27.43
2018-06-05T05:52:28.991Z,17.53
2018-06-05T05:54:56.919Z,21.17
2018-06-05T05:57:26.094Z,21.00
2018-06-05T05:59:54.652Z,21.63
2018-06-05T06:02:23.346Z,19.10
2018-06-05T06:04:51.785Z,22.63
2018-06-05T06:07:20.794Z,19.90
2018-06-05T06:09:50.476Z,19.23
2018-06-05T06:12:19.482Z,17.20
2018-06-05T06:14:47.226Z,17.27
2018-06-05T06:17:15.779Z,15.23
2018-06-05T06:19:43.198Z,20.77
2018-06-05T06:22:11.853Z,13.73
2018-06-05T06:24:41.445Z,16.40
2018-06-05T06:27:10.552Z,21.03
2018-06-05T06:29:39.330Z,17.43
2018-06-05T06:32:07.647Z,12.03
2018-06-05T06:34:36.167Z,14.43
2018-06-05T06:37:04.795Z,13.40
2018-06-05T06:39:33.911Z,20.10
2018-06-05T06:42:02.987Z,14.27
2018-06-05T06:44:31.406Z,15.83
2018-06-05T06:47:00.511Z,16.30
2018-06-05T06:49:29.333Z,19.33
2018-06-05T06:51:58.030Z,21.07
2018-06-05T06:54:26.579Z,12.37
2018-06-05T06:56:55.525Z,17.50
2018-06-05T06:59:24.146Z,14.43
2018-06-05T07:01:53.333Z,14.93
2018-06-05T07:04:21.590Z,21.97
2018-06-05T07:06:51.152Z,13.97
2018-06-05T07:09:19.997Z,19.30
2018-06-05T07:11:48.040Z,16.20
2018-06-05T07:14:17.195Z,19.00
2018-06-05T07:16:46.023Z,15.93
2018-06-05T07:19:15.147Z,13.77
2018-06-05T07:21:43.676Z,12.77
2018-06-05T07:24:12.951Z,14.97
2018-06-05T07:26:41.295Z,14.43
2018-06-05T07:29:10.515Z,14.37
2018-06-05T07:31:40.065Z,16.50
2018-06-05T07:34:08.918Z,15.40
2018-06-05T07:36:37.694Z,12.77
2018-06-05T07:39:07.424Z,15.73
2018-06-05T07:41:38.167Z,14.23
2018-06-05T07:44:06.945Z,14.03
2018-06-05T07:46:35.772Z,17.87
2018-06-05T07:49:04.369Z,26.77
2018-06-05T07:51:32.884Z,18.00
2018-06-05T07:59:45.197Z,13.00
2018-06-05T08:02:13.700Z,15.77
2018-06-05T08:04:42.385Z,13.57
2018-06-05T08:09:56.234Z,15.67
2018-06-05T08:12:24.799Z,12.70
2018-06-05T08:14:53.633Z,14.27
2018-06-05T08:17:22.926Z,14.50
2018-06-05T08:19:50.425Z,15.67
2018-06-05T08:22:17.840Z,13.17
2018-06-05T08:24:46.579Z,14.00
2018-06-05T08:27:13.899Z,12.53
2018-06-05T08:29:41.267Z,12.67
2018-06-05T08:32:14.344Z,14.07
2018-06-05T08:34:43.036Z,12.17
2018-06-05T08:37:12.802Z,18.70
2018-06-05T08:42:26.393Z,13.87
2018-06-05T08:44:55.584Z,13.70
2018-06-05T08:55:54.015Z,12.40
2018-06-05T08:58:25.444Z,13.57
2018-06-05T09:00:54.422Z,10.40
2018-06-05T09:03:23.136Z,11.87
2018-06-05T09:05:51.548Z,10.73
2018-06-05T09:08:20.003Z,10.27
2018-06-05T09:10:48.627Z,14.47
2018-06-05T09:13:17.452Z,9.13
2018-06-05T09:15:45.999Z,12.23
2018-06-05T09:18:15.092Z,9.60
2018-06-05T09:20:43.548Z,8.10
2018-06-05T09:23:13.101Z,10.63
2018-06-05T09:25:41.387Z,9.20
2018-06-05T09:28:10.013Z,8.63
2018-06-05T09:30:39.337Z,13.37
2018-06-05T09:33:08.411Z,14.60
2018-06-05T09:35:37.266Z,11.60
2018-06-05T09:38:05.747Z,9.73
2018-06-05T09:40:34.730Z,14.47
2018-06-05T09:43:03.047Z,15.07
2018-06-05T09:45:31.574Z,10.60
2018-06-05T09:48:04.023Z,13.80
2018-06-05T09:50:33.673Z,11.90
2018-06-05T09:53:02.862Z,12.60
2018-06-05T09:55:32.966Z,13.97
2018-06-05T09:58:01.958Z,15.97
2018-06-05T10:00:35.439Z,12.10
2018-06-05T10:03:04.132Z,14.27
2018-06-05T10:05:33.095Z,11.43
2018-06-05T10:08:02.384Z,9.20
2018-06-05T10:10:30.767Z,8.43
2018-06-05T10:13:00.773Z,7.40
2018-06-05T10:15:29.024Z,14.07
2018-06-05T10:17:57.630Z,10.53
2018-06-05T10:20:26.628Z,14.93
2018-06-05T10:22:55.642Z,10.90
2018-06-05T10:25:24.734Z,11.10
2018-06-05T10:27:54.749Z,14.27
2018-06-05T10:30:23.916Z,9.90
2018-06-05T10:32:54.367Z,9.83
2018-06-05T10:35:23.905Z,14.10
2018-06-05T10:37:53.868Z,10.07
2018-06-05T10:40:24.105Z,9.07
2018-06-05T10:42:55.480Z,8.83
2018-06-05T12:36:58.311Z,6.40
2018-06-05T12:39:25.686Z,10.23
2018-06-05T12:41:53.054Z,7.50
2018-06-05T12:44:20.421Z,5.20
2018-06-05T12:46:47.769Z,6.57
2018-06-05T12:49:15.092Z,11.07
2018-06-05T12:51:42.531Z,9.80
2018-06-05T12:54:09.843Z,6.67
2018-06-05T12:56:37.211Z,6.97
2018-06-05T12:59:05.618Z,10.67
2018-06-05T13:01:34.036Z,6.47
2018-06-05T13:04:02.063Z,6.60
2018-06-05T13:06:30.562Z,8.83
2018-06-05T13:08:58.689Z,4.20
2018-06-05T13:11:27.563Z,5.73
2018-06-05T13:13:55.786Z,6.20
2018-06-05T13:16:24.274Z,7.97
2018-06-05T13:18:52.093Z,6.07
2018-06-05T13:21:20.536Z,3.90
2018-06-05T13:23:49.147Z,5.10
2018-06-05T13:26:18.732Z,5.67
2018-06-05T13:28:46.738Z,4.97
2018-06-05T13:31:15.170Z,6.70
2018-06-05T13:33:43.838Z,4.80
2018-06-05T13:36:12.027Z,6.43
2018-06-05T13:38:40.463Z,5.73
2018-06-05T13:41:08.477Z,13.30
2018-06-05T13:43:36.600Z,3.43
2018-06-05T13:46:04.982Z,5.33
2018-06-05T13:48:33.411Z,4.60
2018-06-05T13:51:02.351Z,4.13
2018-06-05T13:53:30.454Z,7.50
2018-06-05T13:55:58.758Z,5.30
2018-06-05T13:58:26.877Z,9.00
2018-06-05T14:00:54.993Z,7.30
2018-06-05T14:03:22.987Z,5.40
2018-06-05T14:08:25.580Z,5.33
2018-06-05T14:10:55.148Z,6.13
2018-06-05T14:13:23.812Z,3.67
2018-06-05T14:15:52.113Z,9.27
2018-06-05T14:18:20.279Z,8.93
2018-06-05T14:20:48.456Z,5.60
2018-06-05T14:23:16.642Z,7.27
2018-06-05T14:25:45.164Z,4.77
2018-06-05T14:28:13.557Z,4.40
2018-06-05T14:30:41.824Z,8.00
2018-06-05T14:33:10.360Z,5.77
2018-06-05T14:35:39.176Z,5.90
2018-06-05T14:38:07.751Z,5.97
2018-06-05T14:40:37.291Z,5.37
2018-06-05T14:43:05.416Z,8.00
2018-06-05T14:45:33.858Z,5.47
2018-06-05T14:48:02.084Z,4.87
2018-06-05T14:50:30.417Z,4.23
2018-06-05T14:52:58.814Z,4.53
2018-06-05T14:55:28.270Z,6.23
2018-06-05T14:57:56.286Z,4.30
2018-06-05T15:00:24.357Z,6.80
2018-06-05T15:02:52.598Z,4.47
2018-06-05T15:05:20.911Z,7.10
2018-06-05T15:07:49.636Z,5.47
2018-06-05T15:10:17.953Z,3.77
2018-06-05T15:12:45.357Z,6.33
2018-06-05T15:15:12.963Z,10.90
2018-06-05T15:17:40.312Z,7.07
2018-06-05T15:20:07.660Z,5.70
2018-06-05T15:22:35.949Z,4.40
2018-06-05T15:25:03.304Z,6.40
2018-06-05T15:27:30.686Z,5.10
2018-06-05T15:29:58.075Z,6.23
2018-06-05T15:32:25.412Z,7.07
2018-06-05T15:34:52.737Z,6.10
2018-06-05T15:37:20.122Z,6.73
2018-06-05T15:39:49.457Z,5.93
2018-06-05T15:42:16.900Z,5.87
2018-06-05T15:44:44.231Z,7.33
2018-06-05T15:47:11.625Z,10.87
2018-06-05T15:52:35.868Z,9.67
2018-06-05T15:55:03.553Z,8.47
2018-06-05T15:57:31.085Z,8.47
2018-06-05T15:59:59.377Z,5.20
2018-06-05T16:02:31.747Z,7.20
2018-06-05T16:05:00.168Z,8.60
2018-06-05T16:07:34.180Z,4.13
2018-06-05T16:10:04.454Z,5.13
2018-06-05T16:12:35.334Z,6.67
2018-06-05T16:15:07.013Z,4.30
2018-06-05T16:17:35.571Z,5.73
2018-06-05T16:20:03.793Z,8.23
2018-06-05T16:22:31.911Z,6.53
2018-06-05T16:24:59.962Z,5.90
2018-06-05T16:27:30.905Z,9.50
2018-06-05T16:30:03.296Z,8.27
2018-06-05T16:32:35.187Z,3.97
2018-06-05T16:35:03.390Z,6.37
2018-06-05T16:37:33.261Z,6.87
2018-06-05T16:40:05.708Z,6.33
2018-06-05T16:42:39.893Z,8.07
2018-06-05T16:45:12.588Z,5.50
2018-06-05T16:47:42.929Z,12.10
2018-06-05T16:50:16.394Z,5.50
2018-06-05T16:52:46.933Z,7.37
2018-06-05T16:55:18.700Z,8.00
2018-06-05T16:57:52.034Z,13.13
2018-06-05T17:00:28.025Z,8.70
2018-06-05T17:03:01.751Z,6.37
2018-06-05T17:05:33.329Z,9.20
2018-06-05T17:08:07.057Z,7.10
2018-06-05T17:10:39.422Z,6.17
2018-06-05T17:13:15.342Z,9.87
2018-06-05T17:15:46.280Z,7.53
2018-06-05T17:18:23.400Z,8.57
2018-06-05T17:20:56.211Z,7.53
2018-06-05T17:23:33.018Z,6.93
2018-06-05T17:26:07.665Z,13.87
2018-06-05T17:28:40.070Z,7.50
2018-06-05T17:31:09.888Z,9.97
2018-06-05T17:33:40.356Z,9.30
2018-06-05T17:36:11.622Z,6.73
2018-06-05T17:38:39.913Z,7.40
2018-06-05T17:41:12.968Z,8.27
2018-06-05T17:43:43.345Z,10.43
2018-06-05T17:46:11.727Z,8.33
2018-06-05T17:48:42.661Z,9.80
2018-06-05T17:51:11.744Z,12.13
2018-06-05T17:53:40.010Z,7.17
2018-06-05T17:56:09.226Z,9.87
2018-06-05T17:58:37.704Z,10.53
2018-06-05T18:01:09.562Z,7.60
2018-06-05T18:03:40.165Z,8.33
2018-06-05T18:06:12.015Z,13.20
2018-06-05T18:08:44.572Z,15.03
2018-06-05T18:11:16.713Z,12.23
2018-06-05T18:13:51.315Z,16.50
2018-06-05T18:16:21.727Z,11.70
2018-06-05T18:18:53.910Z,8.90
2018-06-05T18:21:26.933Z,8.77
2018-06-05T18:23:59.362Z,10.13
2018-06-05T18:26:37.303Z,8.40
2018-06-05T18:29:08.635Z,15.17
2018-06-05T18:31:45.190Z,8.00
2018-06-05T18:34:22.838Z,11.27
2018-06-05T18:36:58.242Z,16.00
2018-06-05T18:39:36.329Z,10.43
2018-06-05T18:42:06.673Z,9.47
2018-06-05T18:44:37.925Z,12.00
2018-06-05T18:47:06.331Z,10.80
2018-06-05T18:49:35.429Z,8.70
2018-06-05T18:52:04.720Z,9.47
2018-06-05T18:54:33.924Z,10.17
2018-06-05T18:57:02.044Z,11.87
2018-06-05T18:59:30.798Z,10.47
2018-06-05T19:02:01.275Z,12.27
2018-06-05T19:04:30.721Z,11.47
2018-06-05T19:07:00.454Z,15.33
2018-06-05T19:09:32.673Z,15.20
2018-06-05T19:12:04.315Z,13.00
2018-06-05T19:14:36.805Z,16.13
2018-06-05T19:17:08.817Z,12.27
2018-06-05T19:19:42.912Z,11.47
2018-06-05T19:22:16.621Z,13.07
2018-06-05T19:24:49.170Z,10.97
2018-06-05T19:27:20.310Z,10.97
2018-06-05T19:29:50.922Z,14.13
2018-06-05T19:32:19.682Z,14.23
2018-06-05T19:34:49.074Z,13.03
2018-06-05T19:37:20.806Z,13.87
2018-06-05T19:39:52.970Z,14.90
2018-06-05T19:42:26.078Z,12.70
2018-06-05T19:44:59.431Z,13.37
2018-06-05T19:47:30.546Z,11.43
2018-06-05T19:50:01.474Z,11.97
2018-06-05T19:52:34.874Z,9.90
2018-06-05T19:55:03.079Z,12.70
2018-06-05T19:57:33.386Z,10.97
2018-06-05T20:00:01.756Z,14.27
2018-06-05T20:02:46.420Z,9.70
2018-06-05T20:05:16.451Z,10.53
2018-06-05T20:07:45.753Z,15.37
2018-06-05T20:10:20.749Z,16.70
2018-06-05T20:12:55.127Z,8.87
2018-06-05T20:15:25.781Z,10.37
2018-06-05T20:17:58.469Z,9.00
2018-06-05T20:20:29.397Z,8.33
2018-06-05T20:22:58.152Z,18.77
2018-06-05T20:25:33.193Z,23.63
2018-06-05T20:28:03.298Z,22.00
2018-06-05T20:30:36.534Z,16.63
2018-06-05T20:33:11.445Z,12.40
2018-06-05T20:35:45.825Z,9.40
2018-06-05T20:38:17.293Z,13.03
2018-06-05T20:40:45.426Z,16.90
2018-06-05T20:43:17.883Z,11.17
2018-06-05T20:45:48.361Z,11.23
2018-06-05T20:48:18.048Z,17.30
2018-06-05T20:50:51.362Z,13.70
2018-06-05T20:53:22.870Z,9.73
2018-06-05T20:55:52.246Z,11.27
2018-06-05T20:58:21.516Z,10.13
2018-06-05T21:00:56.923Z,11.83
2018-06-05T21:03:26.967Z,15.10
2018-06-05T21:05:55.484Z,9.53
2018-06-05T21:08:30.389Z,9.67
2018-06-05T21:11:06.154Z,12.53
2018-06-05T21:13:36.646Z,10.43
2018-06-05T21:16:09.955Z,13.07
2018-06-05T21:18:39.086Z,13.10
2018-06-05T21:21:11.477Z,25.33
2018-06-05T21:23:42.696Z,14.23
2018-06-05T21:26:11.006Z,12.83
2018-06-05T21:28:39.518Z,9.53
2018-06-05T21:31:07.604Z,13.17
2018-06-05T21:33:35.523Z,15.17
2018-06-05T21:36:04.760Z,17.67
2018-06-05T21:38:34.571Z,8.73
2018-06-05T21:41:03.911Z,15.40
2018-06-05T21:43:32.378Z,16.90
2018-06-05T21:46:00.701Z,16.20
2018-06-05T21:48:28.834Z,15.90
2018-06-05T21:50:57.102Z,14.37
2018-06-05T21:53:25.206Z,15.67
2018-06-05T21:55:53.502Z,17.47
2018-06-05T21:58:21.604Z,12.70
2018-06-05T22:00:49.680Z,17.87
2018-06-05T22:03:17.846Z,17.33
2018-06-05T22:05:45.586Z,10.90
2018-06-05T22:08:13.257Z,14.77
2018-06-05T22:10:40.978Z,12.07
2018-06-05T22:13:08.708Z,11.77
2018-06-05T22:15:36.482Z,15.47
2018-06-05T22:18:04.206Z,12.50
2018-06-05T22:20:33.698Z,12.60
2018-06-05T22:23:01.723Z,15.20
2018-06-05T22:25:29.750Z,17.33
2018-06-05T22:27:57.985Z,21.47
2018-06-05T22:30:34.656Z,14.60
2018-06-05T22:33:02.704Z,19.47
2018-06-05T22:35:30.808Z,13.17
2018-06-05T22:37:58.860Z,15.77
2018-06-05T22:40:26.827Z,17.17
2018-06-05T22:42:54.775Z,19.10
2018-06-05T22:45:22.793Z,13.60
2018-06-05T22:47:50.876Z,16.40
2018-06-05T22:50:19.302Z,18.00
2018-06-05T22:52:47.467Z,18.27
2018-06-05T22:55:15.725Z,16.70
2018-06-05T22:57:43.787Z,15.20
2018-06-05T23:00:12.099Z,15.50
2018-06-05T23:02:40.252Z,15.77
2018-06-05T23:05:08.590Z,20.67
2018-06-05T23:07:37.572Z,15.37
2018-06-05T23:10:05.828Z,14.00
2018-06-05T23:12:34.722Z,17.53
2018-06-05T23:15:02.651Z,16.63
2018-06-05T23:17:31.759Z,13.77
2018-06-05T23:20:00.098Z,20.50
2018-06-05T23:22:29.437Z,13.00
2018-06-05T23:24:57.885Z,14.53
2018-06-05T23:27:26.902Z,11.73
2018-06-05T23:29:56.370Z,11.90
2018-06-05T23:32:24.565Z,10.17
2018-06-05T23:34:52.606Z,7.50
2018-06-05T23:37:21.847Z,8.53
2018-06-05T23:39:51.361Z,7.80
2018-06-05T23:42:19.394Z,9.33
2018-06-05T23:44:47.331Z,7.90
2018-06-05T23:47:18.822Z,8.23
2018-06-05T23:49:47.059Z,6.80
2018-06-05T23:52:15.436Z,11.70
2018-06-05T23:54:43.433Z,12.33
2018-06-05T23:57:11.674Z,6.77
2018-06-05T23:59:39.662Z,9.93
